sensor_id;sensor_type;location;lat;lon;timestamp;temperature;humidity
10530;DHT22;5313;48.834;9.228;2023-05-21T00:00:57;16.80;99.90
10530;DHT22;5313;48.834;9.228;2023-05-21T00:03:23;16.70;99.90
10530;DHT22;5313;48.834;9.228;2023-05-21T00:05:51;16.70;99.90
10530;DHT22;5313;48.834;9.228;2023-05-21T00:08:17;16.70;99.90
10530;DHT22;5313;48.834;9.228;2023-05-21T00:10:43;16.60;99.90
10530;DHT22;5313;48.834;9.228;2023-05-21T00:13:08;16.60;99.90
10530;DHT22;5313;48.834;9.228;2023-05-21T00:15:35;16.60;99.90
10530;DHT22;5313;48.834;9.228;2023-05-21T00:18:00;16.60;99.90
10530;DHT22;5313;48.834;9.228;2023-05-21T00:20:26;16.60;99.90
10530;DHT22;5313;48.834;9.228;2023-05-21T00:22:53;16.60;99.90
10530;DHT22;5313;48.834;9.228;2023-05-21T00:25:19;16.50;99.90
10530;DHT22;5313;48.834;9.228;2023-05-21T00:27:45;16.40;99.90
10530;DHT22;5313;48.834;9.228;2023-05-21T00:30:10;16.40;99.90
10530;DHT22;5313;48.834;9.228;2023-05-21T00:32:36;16.40;99.90
10530;DHT22;5313;48.834;9.228;2023-05-21T00:35:02;16.40;99.90
10530;DHT22;5313;48.834;9.228;2023-05-21T00:37:28;15.10;99.90
10530;DHT22;5313;48.834;9.228;2023-05-21T00:40:01;16.40;99.90
10530;DHT22;5313;48.834;9.228;2023-05-21T00:42:28;16.40;99.90
10530;DHT22;5313;48.834;9.228;2023-05-21T00:44:55;16.50;99.90
10530;DHT22;5313;48.834;9.228;2023-05-21T00:47:21;16.40;99.90
10530;DHT22;5313;48.834;9.228;2023-05-21T00:49:47;16.40;99.90
10530;DHT22;5313;48.834;9.228;2023-05-21T00:52:14;16.40;99.90
10530;DHT22;5313;48.834;9.228;2023-05-21T00:54:47;16.40;99.90
10530;DHT22;5313;48.834;9.228;2023-05-21T00:57:13;16.40;99.90
10530;DHT22;5313;48.834;9.228;2023-05-21T00:59:39;16.40;99.90
10530;DHT22;5313;48.834;9.228;2023-05-21T01:02:05;16.40;99.90
10530;DHT22;5313;48.834;9.228;2023-05-21T01:04:31;16.30;99.90
10530;DHT22;5313;48.834;9.228;2023-05-21T01:06:57;16.30;99.90
10530;DHT22;5313;48.834;9.228;2023-05-21T01:09:24;16.30;99.90
10530;DHT22;5313;48.834;9.228;2023-05-21T01:11:50;16.20;99.90
10530;DHT22;5313;48.834;9.228;2023-05-21T01:14:17;16.20;99.90
10530;DHT22;5313;48.834;9.228;2023-05-21T01:16:47;16.20;99.90
10530;DHT22;5313;48.834;9.228;2023-05-21T01:19:19;16.20;99.90
10530;DHT22;5313;48.834;9.228;2023-05-21T01:21:49;16.10;99.90
10530;DHT22;5313;48.834;9.228;2023-05-21T01:24:15;16.10;99.90
10530;DHT22;5313;48.834;9.228;2023-05-21T01:26:41;16.10;99.90
10530;DHT22;5313;48.834;9.228;2023-05-21T01:29:08;16.10;99.90
10530;DHT22;5313;48.834;9.228;2023-05-21T01:32:12;16.10;99.90
10530;DHT22;5313;48.834;9.228;2023-05-21T01:37:45;16.00;99.90
10530;DHT22;5313;48.834;9.228;2023-05-21T01:40:19;16.00;99.90
10530;DHT22;5313;48.834;9.228;2023-05-21T01:42:47;15.90;99.90
10530;DHT22;5313;48.834;9.228;2023-05-21T01:45:15;16.00;99.90
10530;DHT22;5313;48.834;9.228;2023-05-21T01:47:42;15.90;99.90
10530;DHT22;5313;48.834;9.228;2023-05-21T01:50:09;15.90;99.90
10530;DHT22;5313;48.834;9.228;2023-05-21T01:52:35;15.80;99.90
10530;DHT22;5313;48.834;9.228;2023-05-21T01:55:01;15.90;99.90
10530;DHT22;5313;48.834;9.228;2023-05-21T01:57:27;15.90;99.90
10530;DHT22;5313;48.834;9.228;2023-05-21T01:59:53;15.80;99.90
10530;DHT22;5313;48.834;9.228;2023-05-21T02:02:20;15.90;99.90
10530;DHT22;5313;48.834;9.228;2023-05-21T02:04:46;15.90;99.90
10530;DHT22;5313;48.834;9.228;2023-05-21T02:07:12;15.90;99.90
10530;DHT22;5313;48.834;9.228;2023-05-21T02:09:40;15.80;99.90
10530;DHT22;5313;48.834;9.228;2023-05-21T02:12:06;15.70;99.90
10530;DHT22;5313;48.834;9.228;2023-05-21T02:14:32;15.70;99.90
10530;DHT22;5313;48.834;9.228;2023-05-21T02:16:58;15.60;99.90
10530;DHT22;5313;48.834;9.228;2023-05-21T02:19:25;15.60;99.90
10530;DHT22;5313;48.834;9.228;2023-05-21T02:21:50;15.50;99.90
10530;DHT22;5313;48.834;9.228;2023-05-21T02:24:16;15.50;99.90
10530;DHT22;5313;48.834;9.228;2023-05-21T02:26:42;15.60;99.90
10530;DHT22;5313;48.834;9.228;2023-05-21T02:29:07;15.60;99.90
10530;DHT22;5313;48.834;9.228;2023-05-21T02:31:33;15.50;99.90
10530;DHT22;5313;48.834;9.228;2023-05-21T02:33:58;15.60;99.90
10530;DHT22;5313;48.834;9.228;2023-05-21T02:36:24;15.50;99.90
10530;DHT22;5313;48.834;9.228;2023-05-21T02:38:50;15.50;99.90
10530;DHT22;5313;48.834;9.228;2023-05-21T02:41:16;15.50;99.90
10530;DHT22;5313;48.834;9.228;2023-05-21T02:43:41;15.60;99.90
10530;DHT22;5313;48.834;9.228;2023-05-21T02:46:07;15.50;99.90
10530;DHT22;5313;48.834;9.228;2023-05-21T02:48:32;15.40;99.90
10530;DHT22;5313;48.834;9.228;2023-05-21T02:50:58;15.40;99.90
10530;DHT22;5313;48.834;9.228;2023-05-21T02:53:24;15.40;99.90
10530;DHT22;5313;48.834;9.228;2023-05-21T02:55:49;15.50;99.90
10530;DHT22;5313;48.834;9.228;2023-05-21T02:58:15;15.50;99.90
10530;DHT22;5313;48.834;9.228;2023-05-21T03:00:40;15.40;99.90
10530;DHT22;5313;48.834;9.228;2023-05-21T03:03:06;15.40;99.90
10530;DHT22;5313;48.834;9.228;2023-05-21T03:05:32;15.40;99.90
10530;DHT22;5313;48.834;9.228;2023-05-21T03:07:57;15.40;99.90
10530;DHT22;5313;48.834;9.228;2023-05-21T03:10:23;15.40;99.90
10530;DHT22;5313;48.834;9.228;2023-05-21T03:12:48;15.30;99.90
10530;DHT22;5313;48.834;9.228;2023-05-21T03:15:15;15.30;99.90
10530;DHT22;5313;48.834;9.228;2023-05-21T03:17:40;15.30;99.90
10530;DHT22;5313;48.834;9.228;2023-05-21T03:20:07;15.20;99.90
10530;DHT22;5313;48.834;9.228;2023-05-21T03:22:33;15.20;99.90
10530;DHT22;5313;48.834;9.228;2023-05-21T03:24:59;15.20;99.90
10530;DHT22;5313;48.834;9.228;2023-05-21T03:27:26;15.20;99.90
10530;DHT22;5313;48.834;9.228;2023-05-21T03:29:51;15.20;99.90
10530;DHT22;5313;48.834;9.228;2023-05-21T03:32:19;15.10;99.90
10530;DHT22;5313;48.834;9.228;2023-05-21T03:34:44;15.10;99.90
10530;DHT22;5313;48.834;9.228;2023-05-21T03:37:10;15.10;99.90
10530;DHT22;5313;48.834;9.228;2023-05-21T03:39:35;15.10;99.90
10530;DHT22;5313;48.834;9.228;2023-05-21T03:42:01;15.00;99.90
10530;DHT22;5313;48.834;9.228;2023-05-21T03:44:26;15.00;99.90
10530;DHT22;5313;48.834;9.228;2023-05-21T03:46:52;15.00;99.90
10530;DHT22;5313;48.834;9.228;2023-05-21T03:49:19;14.90;99.90
10530;DHT22;5313;48.834;9.228;2023-05-21T03:51:44;14.80;99.90
10530;DHT22;5313;48.834;9.228;2023-05-21T03:54:10;14.90;99.90
10530;DHT22;5313;48.834;9.228;2023-05-21T03:56:35;14.90;99.90
10530;DHT22;5313;48.834;9.228;2023-05-21T03:59:01;14.80;99.90
10530;DHT22;5313;48.834;9.228;2023-05-21T04:01:26;14.80;99.90
10530;DHT22;5313;48.834;9.228;2023-05-21T04:03:52;14.80;99.90
10530;DHT22;5313;48.834;9.228;2023-05-21T04:06:18;14.80;99.90
10530;DHT22;5313;48.834;9.228;2023-05-21T04:08:43;14.90;99.90
10530;DHT22;5313;48.834;9.228;2023-05-21T04:11:09;14.90;99.90
10530;DHT22;5313;48.834;9.228;2023-05-21T04:13:34;14.80;99.90
10530;DHT22;5313;48.834;9.228;2023-05-21T04:16:00;14.90;99.90
10530;DHT22;5313;48.834;9.228;2023-05-21T04:18:25;16.40;99.90
10530;DHT22;5313;48.834;9.228;2023-05-21T04:20:51;14.90;99.90
10530;DHT22;5313;48.834;9.228;2023-05-21T04:23:18;14.80;99.90
10530;DHT22;5313;48.834;9.228;2023-05-21T04:25:43;14.80;99.90
10530;DHT22;5313;48.834;9.228;2023-05-21T04:28:08;14.80;99.90
10530;DHT22;5313;48.834;9.228;2023-05-21T04:30:34;14.80;99.90
10530;DHT22;5313;48.834;9.228;2023-05-21T04:33:01;14.80;99.90
10530;DHT22;5313;48.834;9.228;2023-05-21T04:35:27;14.90;99.90
10530;DHT22;5313;48.834;9.228;2023-05-21T04:37:52;14.90;99.90
10530;DHT22;5313;48.834;9.228;2023-05-21T04:40:19;14.90;99.90
10530;DHT22;5313;48.834;9.228;2023-05-21T04:42:49;14.80;99.90
10530;DHT22;5313;48.834;9.228;2023-05-21T04:45:15;14.90;99.90
10530;DHT22;5313;48.834;9.228;2023-05-21T04:47:42;15.00;99.90
10530;DHT22;5313;48.834;9.228;2023-05-21T04:50:08;15.00;99.90
10530;DHT22;5313;48.834;9.228;2023-05-21T04:52:35;15.00;99.90
10530;DHT22;5313;48.834;9.228;2023-05-21T04:55:01;15.00;99.90
10530;DHT22;5313;48.834;9.228;2023-05-21T04:57:27;15.00;99.90
10530;DHT22;5313;48.834;9.228;2023-05-21T04:59:53;15.00;99.90
10530;DHT22;5313;48.834;9.228;2023-05-21T05:02:19;15.00;99.90
10530;DHT22;5313;48.834;9.228;2023-05-21T05:04:45;15.00;99.90
10530;DHT22;5313;48.834;9.228;2023-05-21T05:07:10;15.00;99.90
10530;DHT22;5313;48.834;9.228;2023-05-21T05:09:36;15.00;99.90
10530;DHT22;5313;48.834;9.228;2023-05-21T05:12:02;15.10;99.90
10530;DHT22;5313;48.834;9.228;2023-05-21T05:14:27;15.10;99.90
10530;DHT22;5313;48.834;9.228;2023-05-21T05:16:53;15.20;99.90
10530;DHT22;5313;48.834;9.228;2023-05-21T05:19:19;15.20;99.90
10530;DHT22;5313;48.834;9.228;2023-05-21T05:21:45;15.20;99.90
10530;DHT22;5313;48.834;9.228;2023-05-21T05:24:10;15.20;99.90
10530;DHT22;5313;48.834;9.228;2023-05-21T05:26:36;15.20;99.90
10530;DHT22;5313;48.834;9.228;2023-05-21T05:29:01;15.20;99.90
10530;DHT22;5313;48.834;9.228;2023-05-21T05:31:27;15.30;99.90
10530;DHT22;5313;48.834;9.228;2023-05-21T05:33:52;15.50;99.90
10530;DHT22;5313;48.834;9.228;2023-05-21T05:36:18;15.40;99.90
10530;DHT22;5313;48.834;9.228;2023-05-21T05:38:43;15.40;99.90
10530;DHT22;5313;48.834;9.228;2023-05-21T05:41:09;15.40;99.90
10530;DHT22;5313;48.834;9.228;2023-05-21T05:43:34;15.40;99.90
10530;DHT22;5313;48.834;9.228;2023-05-21T05:46:00;15.50;99.90
10530;DHT22;5313;48.834;9.228;2023-05-21T05:48:25;15.50;99.90
10530;DHT22;5313;48.834;9.228;2023-05-21T05:50:51;15.50;99.90
10530;DHT22;5313;48.834;9.228;2023-05-21T05:53:19;15.50;99.90
10530;DHT22;5313;48.834;9.228;2023-05-21T05:55:44;15.50;99.90
10530;DHT22;5313;48.834;9.228;2023-05-21T05:58:10;15.60;99.90
10530;DHT22;5313;48.834;9.228;2023-05-21T06:00:35;15.70;99.90
10530;DHT22;5313;48.834;9.228;2023-05-21T06:03:01;15.70;99.90
10530;DHT22;5313;48.834;9.228;2023-05-21T06:05:26;15.70;99.90
10530;DHT22;5313;48.834;9.228;2023-05-21T06:07:52;15.80;99.90
10530;DHT22;5313;48.834;9.228;2023-05-21T06:10:17;16.00;99.90
10530;DHT22;5313;48.834;9.228;2023-05-21T06:12:44;16.00;99.90
10530;DHT22;5313;48.834;9.228;2023-05-21T06:15:10;16.10;99.90
10530;DHT22;5313;48.834;9.228;2023-05-21T06:17:36;16.00;99.90
10530;DHT22;5313;48.834;9.228;2023-05-21T06:20:01;16.20;99.90
10530;DHT22;5313;48.834;9.228;2023-05-21T06:22:27;16.20;99.90
10530;DHT22;5313;48.834;9.228;2023-05-21T06:24:52;16.10;99.90
10530;DHT22;5313;48.834;9.228;2023-05-21T06:27:18;16.10;99.90
10530;DHT22;5313;48.834;9.228;2023-05-21T06:29:43;16.10;99.90
10530;DHT22;5313;48.834;9.228;2023-05-21T06:32:09;16.30;99.90
10530;DHT22;5313;48.834;9.228;2023-05-21T06:34:35;16.30;99.90
10530;DHT22;5313;48.834;9.228;2023-05-21T06:37:01;16.20;99.90
10530;DHT22;5313;48.834;9.228;2023-05-21T06:39:27;16.30;99.90
10530;DHT22;5313;48.834;9.228;2023-05-21T06:41:52;16.40;99.90
10530;DHT22;5313;48.834;9.228;2023-05-21T06:44:18;16.40;99.90
10530;DHT22;5313;48.834;9.228;2023-05-21T06:46:44;16.30;99.90
10530;DHT22;5313;48.834;9.228;2023-05-21T06:49:10;16.40;99.90
10530;DHT22;5313;48.834;9.228;2023-05-21T06:51:36;16.60;99.90
10530;DHT22;5313;48.834;9.228;2023-05-21T06:54:02;16.70;99.90
10530;DHT22;5313;48.834;9.228;2023-05-21T06:56:28;16.70;99.90
10530;DHT22;5313;48.834;9.228;2023-05-21T06:58:53;16.80;99.90
10530;DHT22;5313;48.834;9.228;2023-05-21T07:01:19;16.80;99.90
10530;DHT22;5313;48.834;9.228;2023-05-21T07:03:46;16.90;99.90
10530;DHT22;5313;48.834;9.228;2023-05-21T07:06:12;16.90;99.90
10530;DHT22;5313;48.834;9.228;2023-05-21T07:08:37;16.70;99.90
10530;DHT22;5313;48.834;9.228;2023-05-21T07:11:03;16.80;99.90
10530;DHT22;5313;48.834;9.228;2023-05-21T07:13:29;16.80;99.90
10530;DHT22;5313;48.834;9.228;2023-05-21T07:15:54;17.00;99.90
10530;DHT22;5313;48.834;9.228;2023-05-21T07:18:20;17.20;99.90
10530;DHT22;5313;48.834;9.228;2023-05-21T07:20:45;17.30;99.90
10530;DHT22;5313;48.834;9.228;2023-05-21T07:23:11;17.20;99.90
10530;DHT22;5313;48.834;9.228;2023-05-21T07:25:36;17.20;99.90
10530;DHT22;5313;48.834;9.228;2023-05-21T07:28:02;17.30;99.90
10530;DHT22;5313;48.834;9.228;2023-05-21T07:30:27;17.30;99.90
10530;DHT22;5313;48.834;9.228;2023-05-21T07:32:53;17.40;99.90
10530;DHT22;5313;48.834;9.228;2023-05-21T07:35:18;17.50;99.90
10530;DHT22;5313;48.834;9.228;2023-05-21T07:37:44;17.60;99.90
10530;DHT22;5313;48.834;9.228;2023-05-21T07:40:11;17.50;99.90
10530;DHT22;5313;48.834;9.228;2023-05-21T07:42:36;17.60;99.90
10530;DHT22;5313;48.834;9.228;2023-05-21T07:45:02;17.90;99.90
10530;DHT22;5313;48.834;9.228;2023-05-21T07:47:28;17.90;99.90
10530;DHT22;5313;48.834;9.228;2023-05-21T07:49:53;17.90;99.90
10530;DHT22;5313;48.834;9.228;2023-05-21T07:52:19;18.10;99.90
10530;DHT22;5313;48.834;9.228;2023-05-21T07:54:44;18.20;99.90
10530;DHT22;5313;48.834;9.228;2023-05-21T07:57:10;18.40;99.90
10530;DHT22;5313;48.834;9.228;2023-05-21T07:59:35;18.40;99.90
10530;DHT22;5313;48.834;9.228;2023-05-21T08:02:01;18.60;99.90
10530;DHT22;5313;48.834;9.228;2023-05-21T08:04:26;18.70;99.90
10530;DHT22;5313;48.834;9.228;2023-05-21T08:06:52;18.70;99.90
10530;DHT22;5313;48.834;9.228;2023-05-21T08:09:18;18.80;99.90
10530;DHT22;5313;48.834;9.228;2023-05-21T08:11:46;19.00;99.90
10530;DHT22;5313;48.834;9.228;2023-05-21T08:14:12;19.00;99.90
10530;DHT22;5313;48.834;9.228;2023-05-21T08:16:37;19.00;99.90
10530;DHT22;5313;48.834;9.228;2023-05-21T08:19:03;19.00;99.90
10530;DHT22;5313;48.834;9.228;2023-05-21T08:21:28;19.20;99.90
10530;DHT22;5313;48.834;9.228;2023-05-21T08:23:54;19.40;99.90
10530;DHT22;5313;48.834;9.228;2023-05-21T08:26:20;19.50;99.90
10530;DHT22;5313;48.834;9.228;2023-05-21T08:28:45;19.40;99.90
10530;DHT22;5313;48.834;9.228;2023-05-21T08:31:11;19.40;99.90
10530;DHT22;5313;48.834;9.228;2023-05-21T08:33:37;19.30;99.90
10530;DHT22;5313;48.834;9.228;2023-05-21T08:36:06;19.50;99.90
10530;DHT22;5313;48.834;9.228;2023-05-21T08:38:32;19.30;99.90
10530;DHT22;5313;48.834;9.228;2023-05-21T08:40:58;19.50;99.90
10530;DHT22;5313;48.834;9.228;2023-05-21T08:43:27;19.60;99.90
10530;DHT22;5313;48.834;9.228;2023-05-21T08:45:54;19.80;99.90
10530;DHT22;5313;48.834;9.228;2023-05-21T08:48:22;20.00;99.90
10530;DHT22;5313;48.834;9.228;2023-05-21T08:50:53;20.00;99.90
10530;DHT22;5313;48.834;9.228;2023-05-21T08:53:19;20.00;99.90
10530;DHT22;5313;48.834;9.228;2023-05-21T08:55:45;20.20;99.90
10530;DHT22;5313;48.834;9.228;2023-05-21T08:58:11;20.10;99.90
10530;DHT22;5313;48.834;9.228;2023-05-21T09:00:38;20.00;99.90
10530;DHT22;5313;48.834;9.228;2023-05-21T09:03:04;20.20;99.90
10530;DHT22;5313;48.834;9.228;2023-05-21T09:05:33;20.50;99.90
10530;DHT22;5313;48.834;9.228;2023-05-21T09:08:04;20.30;99.90
10530;DHT22;5313;48.834;9.228;2023-05-21T09:10:47;20.30;99.90
10530;DHT22;5313;48.834;9.228;2023-05-21T09:13:13;20.30;99.90
10530;DHT22;5313;48.834;9.228;2023-05-21T09:15:39;20.20;99.90
10530;DHT22;5313;48.834;9.228;2023-05-21T09:18:06;20.10;99.90
10530;DHT22;5313;48.834;9.228;2023-05-21T09:20:31;20.00;99.90
10530;DHT22;5313;48.834;9.228;2023-05-21T09:23:02;20.00;99.90
10530;DHT22;5313;48.834;9.228;2023-05-21T09:25:28;20.20;99.90
10530;DHT22;5313;48.834;9.228;2023-05-21T09:27:57;20.30;99.90
10530;DHT22;5313;48.834;9.228;2023-05-21T09:30:23;20.40;99.90
10530;DHT22;5313;48.834;9.228;2023-05-21T09:32:54;20.50;99.90
10530;DHT22;5313;48.834;9.228;2023-05-21T09:35:20;20.60;99.90
10530;DHT22;5313;48.834;9.228;2023-05-21T09:37:52;20.70;99.90
10530;DHT22;5313;48.834;9.228;2023-05-21T09:40:19;20.80;99.90
10530;DHT22;5313;48.834;9.228;2023-05-21T09:42:46;21.00;99.90
10530;DHT22;5313;48.834;9.228;2023-05-21T09:45:17;21.10;99.90
10530;DHT22;5313;48.834;9.228;2023-05-21T09:47:44;21.20;99.90
10530;DHT22;5313;48.834;9.228;2023-05-21T09:50:20;21.50;99.90
10530;DHT22;5313;48.834;9.228;2023-05-21T09:52:46;21.50;99.90
10530;DHT22;5313;48.834;9.228;2023-05-21T09:55:13;21.60;99.90
10530;DHT22;5313;48.834;9.228;2023-05-21T09:57:46;21.80;99.90
10530;DHT22;5313;48.834;9.228;2023-05-21T10:00:22;21.90;99.90
10530;DHT22;5313;48.834;9.228;2023-05-21T10:02:53;21.80;99.90
10530;DHT22;5313;48.834;9.228;2023-05-21T10:05:19;22.00;99.90
10530;DHT22;5313;48.834;9.228;2023-05-21T10:07:49;22.20;99.90
10530;DHT22;5313;48.834;9.228;2023-05-21T10:10:18;22.40;99.90
10530;DHT22;5313;48.834;9.228;2023-05-21T10:12:46;22.70;99.90
10530;DHT22;5313;48.834;9.228;2023-05-21T10:15:14;22.60;99.90
10530;DHT22;5313;48.834;9.228;2023-05-21T10:17:41;22.50;99.90
10530;DHT22;5313;48.834;9.228;2023-05-21T10:20:09;23.10;99.90
10530;DHT22;5313;48.834;9.228;2023-05-21T10:22:35;23.30;99.90
10530;DHT22;5313;48.834;9.228;2023-05-21T10:25:02;23.10;99.90
10530;DHT22;5313;48.834;9.228;2023-05-21T10:27:29;23.20;99.90
10530;DHT22;5313;48.834;9.228;2023-05-21T10:29:56;23.70;99.90
10530;DHT22;5313;48.834;9.228;2023-05-21T10:32:27;23.40;99.90
10530;DHT22;5313;48.834;9.228;2023-05-21T10:34:54;23.60;99.90
10530;DHT22;5313;48.834;9.228;2023-05-21T10:37:24;23.60;99.90
10530;DHT22;5313;48.834;9.228;2023-05-21T10:39:51;23.80;99.90
10530;DHT22;5313;48.834;9.228;2023-05-21T10:53:07;23.40;99.90
10530;DHT22;5313;48.834;9.228;2023-05-21T10:58:40;23.30;99.90
10530;DHT22;5313;48.834;9.228;2023-05-21T11:01:09;23.60;99.90
10530;DHT22;5313;48.834;9.228;2023-05-21T11:03:35;23.80;99.90
10530;DHT22;5313;48.834;9.228;2023-05-21T11:06:02;24.00;99.90
10530;DHT22;5313;48.834;9.228;2023-05-21T11:08:30;24.10;99.90
10530;DHT22;5313;48.834;9.228;2023-05-21T11:10:58;24.20;99.90
10530;DHT22;5313;48.834;9.228;2023-05-21T11:13:25;24.30;99.90
10530;DHT22;5313;48.834;9.228;2023-05-21T11:18:29;24.40;99.90
10530;DHT22;5313;48.834;9.228;2023-05-21T11:21:20;24.20;99.90
10530;DHT22;5313;48.834;9.228;2023-05-21T11:23:53;24.70;99.90
10530;DHT22;5313;48.834;9.228;2023-05-21T11:26:27;24.50;99.90
10530;DHT22;5313;48.834;9.228;2023-05-21T11:29:10;24.50;99.90
10530;DHT22;5313;48.834;9.228;2023-05-21T11:31:36;24.30;99.90
10530;DHT22;5313;48.834;9.228;2023-05-21T11:34:19;24.30;99.90
10530;DHT22;5313;48.834;9.228;2023-05-21T11:40:15;24.70;99.90
10530;DHT22;5313;48.834;9.228;2023-05-21T11:42:41;24.90;99.90
10530;DHT22;5313;48.834;9.228;2023-05-21T11:45:09;24.90;99.90
10530;DHT22;5313;48.834;9.228;2023-05-21T11:47:35;24.80;99.90
10530;DHT22;5313;48.834;9.228;2023-05-21T11:50:02;24.50;99.90
10530;DHT22;5313;48.834;9.228;2023-05-21T11:52:29;24.50;99.90
10530;DHT22;5313;48.834;9.228;2023-05-21T11:54:55;24.70;99.90
10530;DHT22;5313;48.834;9.228;2023-05-21T11:57:24;24.60;99.90
10530;DHT22;5313;48.834;9.228;2023-05-21T11:59:51;24.60;99.90
10530;DHT22;5313;48.834;9.228;2023-05-21T12:02:19;24.80;99.90
10530;DHT22;5313;48.834;9.228;2023-05-21T12:04:47;25.40;99.90
10530;DHT22;5313;48.834;9.228;2023-05-21T12:07:14;25.20;99.90
10530;DHT22;5313;48.834;9.228;2023-05-21T12:09:41;25.00;99.90
10530;DHT22;5313;48.834;9.228;2023-05-21T12:12:14;24.60;99.90
10530;DHT22;5313;48.834;9.228;2023-05-21T12:14:45;24.70;99.90
10530;DHT22;5313;48.834;9.228;2023-05-21T12:17:12;25.10;99.90
10530;DHT22;5313;48.834;9.228;2023-05-21T12:19:40;25.30;99.90
10530;DHT22;5313;48.834;9.228;2023-05-21T12:22:06;24.90;99.90
10530;DHT22;5313;48.834;9.228;2023-05-21T12:24:32;25.30;99.90
10530;DHT22;5313;48.834;9.228;2023-05-21T12:26:59;25.70;99.90
10530;DHT22;5313;48.834;9.228;2023-05-21T12:29:27;25.90;99.90
10530;DHT22;5313;48.834;9.228;2023-05-21T12:31:53;25.40;99.90
10530;DHT22;5313;48.834;9.228;2023-05-21T12:37:04;25.50;99.90
10530;DHT22;5313;48.834;9.228;2023-05-21T12:39:31;25.70;99.90
10530;DHT22;5313;48.834;9.228;2023-05-21T12:41:57;25.40;99.90
10530;DHT22;5313;48.834;9.228;2023-05-21T12:44:23;25.40;99.90
10530;DHT22;5313;48.834;9.228;2023-05-21T12:46:53;25.30;99.90
10530;DHT22;5313;48.834;9.228;2023-05-21T12:49:41;25.30;99.90
10530;DHT22;5313;48.834;9.228;2023-05-21T12:52:13;25.50;99.90
10530;DHT22;5313;48.834;9.228;2023-05-21T12:54:40;25.20;99.90
10530;DHT22;5313;48.834;9.228;2023-05-21T12:57:14;24.90;99.90
10530;DHT22;5313;48.834;9.228;2023-05-21T12:59:57;24.70;99.90
10530;DHT22;5313;48.834;9.228;2023-05-21T13:04:59;25.50;99.90
10530;DHT22;5313;48.834;9.228;2023-05-21T13:07:27;25.60;99.90
10530;DHT22;5313;48.834;9.228;2023-05-21T13:09:53;25.50;99.90
10530;DHT22;5313;48.834;9.228;2023-05-21T13:12:23;25.50;99.90
10530;DHT22;5313;48.834;9.228;2023-05-21T13:14:49;25.40;99.90
10530;DHT22;5313;48.834;9.228;2023-05-21T13:17:16;25.50;99.90
10530;DHT22;5313;48.834;9.228;2023-05-21T13:19:42;25.60;99.90
10530;DHT22;5313;48.834;9.228;2023-05-21T13:22:07;26.00;99.90
10530;DHT22;5313;48.834;9.228;2023-05-21T13:24:35;25.80;99.90
10530;DHT22;5313;48.834;9.228;2023-05-21T13:27:00;25.80;99.90
10530;DHT22;5313;48.834;9.228;2023-05-21T13:29:26;26.40;99.90
10530;DHT22;5313;48.834;9.228;2023-05-21T13:31:51;25.90;99.90
10530;DHT22;5313;48.834;9.228;2023-05-21T13:34:17;26.00;99.90
10530;DHT22;5313;48.834;9.228;2023-05-21T13:36:42;26.10;99.40
10530;DHT22;5313;48.834;9.228;2023-05-21T13:39:08;26.70;98.50
10530;DHT22;5313;48.834;9.228;2023-05-21T13:41:34;26.70;99.90
10530;DHT22;5313;48.834;9.228;2023-05-21T13:44:18;27.70;98.90
10530;DHT22;5313;48.834;9.228;2023-05-21T13:47:21;26.60;94.30
10530;DHT22;5313;48.834;9.228;2023-05-21T13:50:21;27.10;93.10
10530;DHT22;5313;48.834;9.228;2023-05-21T13:55:50;27.00;92.20
10530;DHT22;5313;48.834;9.228;2023-05-21T13:58:16;27.10;92.80
10530;DHT22;5313;48.834;9.228;2023-05-21T14:00:46;27.20;91.50
10530;DHT22;5313;48.834;9.228;2023-05-21T14:03:12;27.50;92.00
10530;DHT22;5313;48.834;9.228;2023-05-21T14:05:39;28.00;90.70
10530;DHT22;5313;48.834;9.228;2023-05-21T14:08:05;27.60;83.70
10530;DHT22;5313;48.834;9.228;2023-05-21T14:10:32;27.40;89.00
10530;DHT22;5313;48.834;9.228;2023-05-21T14:12:57;27.10;89.30
10530;DHT22;5313;48.834;9.228;2023-05-21T14:15:23;26.90;86.60
10530;DHT22;5313;48.834;9.228;2023-05-21T14:17:48;27.00;84.20
10530;DHT22;5313;48.834;9.228;2023-05-21T14:20:16;27.10;88.40
10530;DHT22;5313;48.834;9.228;2023-05-21T14:22:42;27.10;84.20
10530;DHT22;5313;48.834;9.228;2023-05-21T14:25:07;27.20;84.50
10530;DHT22;5313;48.834;9.228;2023-05-21T14:27:33;27.10;83.20
10530;DHT22;5313;48.834;9.228;2023-05-21T14:29:58;26.90;82.40
10530;DHT22;5313;48.834;9.228;2023-05-21T14:32:24;26.40;80.00
10530;DHT22;5313;48.834;9.228;2023-05-21T14:34:50;26.30;76.50
10530;DHT22;5313;48.834;9.228;2023-05-21T14:37:15;26.40;75.30
10530;DHT22;5313;48.834;9.228;2023-05-21T14:39:41;26.30;70.90
10530;DHT22;5313;48.834;9.228;2023-05-21T14:42:06;26.20;70.10
10530;DHT22;5313;48.834;9.228;2023-05-21T14:44:32;26.20;73.60
10530;DHT22;5313;48.834;9.228;2023-05-21T14:46:57;26.10;75.10
10530;DHT22;5313;48.834;9.228;2023-05-21T14:49:23;26.10;78.90
10530;DHT22;5313;48.834;9.228;2023-05-21T14:51:48;26.00;73.60
10530;DHT22;5313;48.834;9.228;2023-05-21T14:54:13;25.70;75.30
10530;DHT22;5313;48.834;9.228;2023-05-21T14:56:39;25.60;78.70
10530;DHT22;5313;48.834;9.228;2023-05-21T14:59:05;25.60;80.70
10530;DHT22;5313;48.834;9.228;2023-05-21T15:01:30;25.50;83.90
10530;DHT22;5313;48.834;9.228;2023-05-21T15:03:56;25.60;83.90
10530;DHT22;5313;48.834;9.228;2023-05-21T15:06:22;25.80;81.40
10530;DHT22;5313;48.834;9.228;2023-05-21T15:08:48;25.80;85.60
10530;DHT22;5313;48.834;9.228;2023-05-21T15:11:13;25.80;84.90
10530;DHT22;5313;48.834;9.228;2023-05-21T15:13:39;25.50;89.90
10530;DHT22;5313;48.834;9.228;2023-05-21T15:16:05;25.60;90.40
10530;DHT22;5313;48.834;9.228;2023-05-21T15:18:30;25.60;91.20
10530;DHT22;5313;48.834;9.228;2023-05-21T15:20:56;25.80;90.10
10530;DHT22;5313;48.834;9.228;2023-05-21T15:23:22;25.70;91.90
10530;DHT22;5313;48.834;9.228;2023-05-21T15:25:47;25.90;90.50
10530;DHT22;5313;48.834;9.228;2023-05-21T15:28:13;26.10;90.90
10530;DHT22;5313;48.834;9.228;2023-05-21T15:30:39;26.00;91.30
10530;DHT22;5313;48.834;9.228;2023-05-21T15:33:04;25.90;92.10
10530;DHT22;5313;48.834;9.228;2023-05-21T15:35:30;25.50;92.20
10530;DHT22;5313;48.834;9.228;2023-05-21T15:37:56;25.70;91.70
10530;DHT22;5313;48.834;9.228;2023-05-21T15:40:21;25.60;92.50
10530;DHT22;5313;48.834;9.228;2023-05-21T15:42:47;25.80;93.60
10530;DHT22;5313;48.834;9.228;2023-05-21T15:45:12;25.90;94.80
10530;DHT22;5313;48.834;9.228;2023-05-21T15:47:38;26.00;91.90
10530;DHT22;5313;48.834;9.228;2023-05-21T15:50:09;26.00;91.30
10530;DHT22;5313;48.834;9.228;2023-05-21T15:52:35;26.10;91.70
10530;DHT22;5313;48.834;9.228;2023-05-21T15:55:01;26.50;92.40
10530;DHT22;5313;48.834;9.228;2023-05-21T15:57:26;26.50;91.60
10530;DHT22;5313;48.834;9.228;2023-05-21T15:59:52;26.50;91.40
10530;DHT22;5313;48.834;9.228;2023-05-21T16:02:17;26.50;91.30
10530;DHT22;5313;48.834;9.228;2023-05-21T16:04:43;26.60;91.10
10530;DHT22;5313;48.834;9.228;2023-05-21T16:07:09;26.30;92.70
10530;DHT22;5313;48.834;9.228;2023-05-21T16:09:35;26.10;93.30
10530;DHT22;5313;48.834;9.228;2023-05-21T16:12:02;25.60;92.80
10530;DHT22;5313;48.834;9.228;2023-05-21T16:14:27;25.80;93.10